sensor_id;sensor_type;location;lat;lon;timestamp;P1;durP1;ratioP1;P2;durP2;ratioP2
7971;SDS011;4031;49.758;6.120;2024-03-17T00:00:22;13.10;;;8.97;;
7971;SDS011;4031;49.758;6.120;2024-03-17T00:02:48;10.27;;;7.30;;
7971;SDS011;4031;49.758;6.120;2024-03-17T00:05:14;11.70;;;10.50;;
7971;SDS011;4031;49.758;6.120;2024-03-17T00:07:40;13.17;;;7.63;;
7971;SDS011;4031;49.758;6.120;2024-03-17T00:10:06;12.23;;;7.40;;
7971;SDS011;4031;49.758;6.120;2024-03-17T00:12:32;9.07;;;6.57;;
7971;SDS011;4031;49.758;6.120;2024-03-17T00:14:59;8.63;;;6.73;;
7971;SDS011;4031;49.758;6.120;2024-03-17T00:17:25;9.70;;;7.60;;
7971;SDS011;4031;49.758;6.120;2024-03-17T00:19:51;10.27;;;5.50;;
7971;SDS011;4031;49.758;6.120;2024-03-17T00:22:17;7.67;;;5.63;;
7971;SDS011;4031;49.758;6.120;2024-03-17T00:24:43;9.73;;;6.20;;
7971;SDS011;4031;49.758;6.120;2024-03-17T00:27:09;11.50;;;7.10;;
7971;SDS011;4031;49.758;6.120;2024-03-17T00:29:36;9.13;;;6.90;;
7971;SDS011;4031;49.758;6.120;2024-03-17T00:32:03;6.87;;;5.57;;
7971;SDS011;4031;49.758;6.120;2024-03-17T00:34:30;5.83;;;5.30;;
7971;SDS011;4031;49.758;6.120;2024-03-17T00:36:55;8.40;;;5.33;;
7971;SDS011;4031;49.758;6.120;2024-03-17T00:39:21;5.63;;;4.63;;
7971;SDS011;4031;49.758;6.120;2024-03-17T00:41:48;10.00;;;6.07;;
7971;SDS011;4031;49.758;6.120;2024-03-17T00:44:14;6.50;;;4.60;;
7971;SDS011;4031;49.758;6.120;2024-03-17T00:46:40;6.00;;;4.70;;
7971;SDS011;4031;49.758;6.120;2024-03-17T00:49:07;7.97;;;6.20;;
7971;SDS011;4031;49.758;6.120;2024-03-17T00:51:35;7.07;;;6.00;;
7971;SDS011;4031;49.758;6.120;2024-03-17T00:54:01;8.90;;;6.50;;
7971;SDS011;4031;49.758;6.120;2024-03-17T00:56:27;8.83;;;6.63;;
7971;SDS011;4031;49.758;6.120;2024-03-17T00:58:53;7.87;;;6.13;;
7971;SDS011;4031;49.758;6.120;2024-03-17T01:01:19;8.83;;;6.27;;
7971;SDS011;4031;49.758;6.120;2024-03-17T01:03:45;8.07;;;7.20;;
7971;SDS011;4031;49.758;6.120;2024-03-17T01:06:11;11.23;;;6.03;;
7971;SDS011;4031;49.758;6.120;2024-03-17T01:08:37;9.43;;;6.50;;
7971;SDS011;4031;49.758;6.120;2024-03-17T01:11:03;12.20;;;6.60;;
7971;SDS011;4031;49.758;6.120;2024-03-17T01:13:33;9.93;;;6.30;;
7971;SDS011;4031;49.758;6.120;2024-03-17T01:16:02;8.30;;;5.83;;
7971;SDS011;4031;49.758;6.120;2024-03-17T01:18:29;8.13;;;6.50;;
7971;SDS011;4031;49.758;6.120;2024-03-17T01:20:54;14.63;;;6.53;;
7971;SDS011;4031;49.758;6.120;2024-03-17T01:23:21;8.83;;;6.40;;
7971;SDS011;4031;49.758;6.120;2024-03-17T01:25:46;11.23;;;7.93;;
7971;SDS011;4031;49.758;6.120;2024-03-17T01:28:12;9.00;;;6.40;;
7971;SDS011;4031;49.758;6.120;2024-03-17T01:30:39;7.30;;;5.83;;
7971;SDS011;4031;49.758;6.120;2024-03-17T01:33:04;9.57;;;7.50;;
7971;SDS011;4031;49.758;6.120;2024-03-17T01:35:30;12.17;;;6.77;;
7971;SDS011;4031;49.758;6.120;2024-03-17T01:37:56;9.20;;;6.63;;
7971;SDS011;4031;49.758;6.120;2024-03-17T01:40:22;10.90;;;6.53;;
7971;SDS011;4031;49.758;6.120;2024-03-17T01:42:48;8.20;;;6.03;;
7971;SDS011;4031;49.758;6.120;2024-03-17T01:47:42;14.40;;;7.63;;
7971;SDS011;4031;49.758;6.120;2024-03-17T01:50:09;9.70;;;6.90;;
7971;SDS011;4031;49.758;6.120;2024-03-17T01:52:37;7.50;;;6.07;;
7971;SDS011;4031;49.758;6.120;2024-03-17T01:55:03;13.93;;;7.47;;
7971;SDS011;4031;49.758;6.120;2024-03-17T01:57:30;8.47;;;7.13;;
7971;SDS011;4031;49.758;6.120;2024-03-17T01:59:56;9.40;;;5.93;;
7971;SDS011;4031;49.758;6.120;2024-03-17T02:02:23;11.93;;;8.20;;
7971;SDS011;4031;49.758;6.120;2024-03-17T02:04:49;9.50;;;6.67;;
7971;SDS011;4031;49.758;6.120;2024-03-17T02:07:15;10.07;;;7.37;;
7971;SDS011;4031;49.758;6.120;2024-03-17T02:09:41;12.60;;;7.30;;
7971;SDS011;4031;49.758;6.120;2024-03-17T02:12:09;9.43;;;5.70;;
7971;SDS011;4031;49.758;6.120;2024-03-17T02:14:36;10.43;;;7.90;;
7971;SDS011;4031;49.758;6.120;2024-03-17T02:17:03;7.97;;;6.43;;
7971;SDS011;4031;49.758;6.120;2024-03-17T02:19:29;8.80;;;7.10;;
7971;SDS011;4031;49.758;6.120;2024-03-17T02:21:55;11.30;;;7.37;;
7971;SDS011;4031;49.758;6.120;2024-03-17T02:24:21;11.90;;;6.80;;
7971;SDS011;4031;49.758;6.120;2024-03-17T02:26:47;11.97;;;7.20;;
7971;SDS011;4031;49.758;6.120;2024-03-17T02:29:13;8.90;;;6.07;;
7971;SDS011;4031;49.758;6.120;2024-03-17T02:31:39;13.43;;;8.20;;
7971;SDS011;4031;49.758;6.120;2024-03-17T02:34:05;8.30;;;7.10;;
7971;SDS011;4031;49.758;6.120;2024-03-17T02:36:31;10.67;;;7.87;;
7971;SDS011;4031;49.758;6.120;2024-03-17T02:38:56;9.10;;;6.33;;
7971;SDS011;4031;49.758;6.120;2024-03-17T02:41:44;10.03;;;7.20;;
7971;SDS011;4031;49.758;6.120;2024-03-17T02:44:11;12.83;;;7.23;;
7971;SDS011;4031;49.758;6.120;2024-03-17T02:46:37;7.47;;;5.40;;
7971;SDS011;4031;49.758;6.120;2024-03-17T02:49:03;10.10;;;6.50;;
7971;SDS011;4031;49.758;6.120;2024-03-17T02:51:29;8.60;;;6.53;;
7971;SDS011;4031;49.758;6.120;2024-03-17T02:53:55;10.50;;;6.10;;
7971;SDS011;4031;49.758;6.120;2024-03-17T02:56:21;9.23;;;6.40;;
7971;SDS011;4031;49.758;6.120;2024-03-17T02:58:47;9.10;;;5.97;;
7971;SDS011;4031;49.758;6.120;2024-03-17T03:01:14;11.80;;;5.97;;
7971;SDS011;4031;49.758;6.120;2024-03-17T03:03:40;8.80;;;6.30;;
7971;SDS011;4031;49.758;6.120;2024-03-17T03:06:07;8.67;;;6.50;;
7971;SDS011;4031;49.758;6.120;2024-03-17T03:08:37;8.90;;;6.30;;
7971;SDS011;4031;49.758;6.120;2024-03-17T03:11:06;11.67;;;6.80;;
7971;SDS011;4031;49.758;6.120;2024-03-17T03:13:36;9.63;;;6.30;;
7971;SDS011;4031;49.758;6.120;2024-03-17T03:16:04;8.87;;;6.50;;
7971;SDS011;4031;49.758;6.120;2024-03-17T03:18:36;10.10;;;6.20;;
7971;SDS011;4031;49.758;6.120;2024-03-17T03:21:03;9.57;;;6.60;;
7971;SDS011;4031;49.758;6.120;2024-03-17T03:23:30;9.50;;;6.60;;
7971;SDS011;4031;49.758;6.120;2024-03-17T03:26:00;14.20;;;7.00;;
7971;SDS011;4031;49.758;6.120;2024-03-17T03:28:28;8.40;;;5.10;;
7971;SDS011;4031;49.758;6.120;2024-03-17T03:30:58;10.73;;;5.90;;
7971;SDS011;4031;49.758;6.120;2024-03-17T03:33:24;7.00;;;5.70;;
7971;SDS011;4031;49.758;6.120;2024-03-17T03:35:50;7.67;;;5.77;;
7971;SDS011;4031;49.758;6.120;2024-03-17T03:38:16;9.97;;;6.70;;
7971;SDS011;4031;49.758;6.120;2024-03-17T03:40:43;10.43;;;5.80;;
7971;SDS011;4031;49.758;6.120;2024-03-17T03:43:09;12.53;;;6.73;;
7971;SDS011;4031;49.758;6.120;2024-03-17T03:45:36;9.33;;;5.57;;
7971;SDS011;4031;49.758;6.120;2024-03-17T03:48:03;8.77;;;5.30;;
7971;SDS011;4031;49.758;6.120;2024-03-17T03:50:29;10.57;;;5.70;;
7971;SDS011;4031;49.758;6.120;2024-03-17T03:52:56;9.90;;;5.30;;
7971;SDS011;4031;49.758;6.120;2024-03-17T03:55:22;8.60;;;6.00;;
7971;SDS011;4031;49.758;6.120;2024-03-17T03:57:48;8.23;;;6.13;;
7971;SDS011;4031;49.758;6.120;2024-03-17T04:00:17;7.90;;;6.03;;
7971;SDS011;4031;49.758;6.120;2024-03-17T04:02:48;8.67;;;6.40;;
7971;SDS011;4031;49.758;6.120;2024-03-17T04:05:15;10.10;;;6.37;;
7971;SDS011;4031;49.758;6.120;2024-03-17T04:07:41;8.07;;;5.70;;
7971;SDS011;4031;49.758;6.120;2024-03-17T04:10:08;8.80;;;5.73;;
7971;SDS011;4031;49.758;6.120;2024-03-17T04:12:35;10.53;;;5.90;;
7971;SDS011;4031;49.758;6.120;2024-03-17T04:15:01;10.13;;;6.60;;
7971;SDS011;4031;49.758;6.120;2024-03-17T04:17:27;7.63;;;6.70;;
7971;SDS011;4031;49.758;6.120;2024-03-17T04:19:53;11.23;;;7.10;;
7971;SDS011;4031;49.758;6.120;2024-03-17T04:22:20;8.30;;;5.60;;
7971;SDS011;4031;49.758;6.120;2024-03-17T04:24:50;9.43;;;6.43;;
7971;SDS011;4031;49.758;6.120;2024-03-17T04:27:21;10.63;;;6.70;;
7971;SDS011;4031;49.758;6.120;2024-03-17T04:29:51;10.47;;;6.47;;
7971;SDS011;4031;49.758;6.120;2024-03-17T04:32:22;12.37;;;6.60;;
7971;SDS011;4031;49.758;6.120;2024-03-17T04:34:48;8.47;;;5.33;;
7971;SDS011;4031;49.758;6.120;2024-03-17T04:37:15;16.80;;;10.83;;
7971;SDS011;4031;49.758;6.120;2024-03-17T04:39:42;20.87;;;11.37;;
7971;SDS011;4031;49.758;6.120;2024-03-17T04:42:10;26.40;;;15.57;;
7971;SDS011;4031;49.758;6.120;2024-03-17T04:44:37;26.53;;;13.33;;
7971;SDS011;4031;49.758;6.120;2024-03-17T04:47:03;24.77;;;12.60;;
7971;SDS011;4031;49.758;6.120;2024-03-17T04:49:32;17.60;;;9.87;;
7971;SDS011;4031;49.758;6.120;2024-03-17T04:52:04;14.53;;;8.87;;
7971;SDS011;4031;49.758;6.120;2024-03-17T04:54:31;13.10;;;8.63;;
7971;SDS011;4031;49.758;6.120;2024-03-17T04:56:57;10.90;;;7.50;;
7971;SDS011;4031;49.758;6.120;2024-03-17T04:59:23;11.33;;;8.23;;
7971;SDS011;4031;49.758;6.120;2024-03-17T05:01:49;12.97;;;7.90;;
7971;SDS011;4031;49.758;6.120;2024-03-17T05:04:15;14.17;;;6.70;;
7971;SDS011;4031;49.758;6.120;2024-03-17T05:06:41;10.30;;;6.10;;
7971;SDS011;4031;49.758;6.120;2024-03-17T05:09:11;12.63;;;6.30;;
7971;SDS011;4031;49.758;6.120;2024-03-17T05:11:40;12.23;;;7.83;;
7971;SDS011;4031;49.758;6.120;2024-03-17T05:14:07;12.50;;;8.00;;
7971;SDS011;4031;49.758;6.120;2024-03-17T05:16:33;12.10;;;8.67;;
7971;SDS011;4031;49.758;6.120;2024-03-17T05:18:59;13.77;;;8.53;;
7971;SDS011;4031;49.758;6.120;2024-03-17T05:21:25;10.97;;;6.63;;
7971;SDS011;4031;49.758;6.120;2024-03-17T05:23:54;12.70;;;7.73;;
7971;SDS011;4031;49.758;6.120;2024-03-17T05:26:26;11.03;;;7.57;;
7971;SDS011;4031;49.758;6.120;2024-03-17T05:28:52;14.57;;;7.00;;
7971;SDS011;4031;49.758;6.120;2024-03-17T05:31:18;9.97;;;7.83;;
7971;SDS011;4031;49.758;6.120;2024-03-17T05:33:46;16.87;;;6.90;;
7971;SDS011;4031;49.758;6.120;2024-03-17T05:36:13;11.13;;;7.63;;
7971;SDS011;4031;49.758;6.120;2024-03-17T05:38:39;16.67;;;7.80;;
7971;SDS011;4031;49.758;6.120;2024-03-17T05:41:06;14.20;;;6.93;;
7971;SDS011;4031;49.758;6.120;2024-03-17T05:43:34;10.37;;;7.43;;
7971;SDS011;4031;49.758;6.120;2024-03-17T05:46:05;13.97;;;8.30;;
7971;SDS011;4031;49.758;6.120;2024-03-17T05:48:36;17.27;;;7.93;;
7971;SDS011;4031;49.758;6.120;2024-03-17T05:51:04;14.20;;;8.40;;
7971;SDS011;4031;49.758;6.120;2024-03-17T05:53:32;15.57;;;8.60;;
7971;SDS011;4031;49.758;6.120;2024-03-17T05:56:01;11.53;;;6.93;;
7971;SDS011;4031;49.758;6.120;2024-03-17T05:58:28;11.03;;;6.40;;
7971;SDS011;4031;49.758;6.120;2024-03-17T06:00:54;26.97;;;8.57;;
7971;SDS011;4031;49.758;6.120;2024-03-17T06:03:20;21.53;;;7.90;;
7971;SDS011;4031;49.758;6.120;2024-03-17T06:05:47;16.60;;;7.17;;
7971;SDS011;4031;49.758;6.120;2024-03-17T06:08:13;15.27;;;7.70;;
7971;SDS011;4031;49.758;6.120;2024-03-17T06:10:46;14.97;;;7.97;;
7971;SDS011;4031;49.758;6.120;2024-03-17T06:13:14;12.17;;;6.90;;
7971;SDS011;4031;49.758;6.120;2024-03-17T06:15:42;14.00;;;7.83;;
7971;SDS011;4031;49.758;6.120;2024-03-17T06:18:12;13.60;;;7.73;;
7971;SDS011;4031;49.758;6.120;2024-03-17T06:20:43;16.33;;;8.63;;
7971;SDS011;4031;49.758;6.120;2024-03-17T06:23:10;14.87;;;7.77;;
7971;SDS011;4031;49.758;6.120;2024-03-17T06:25:43;15.07;;;7.70;;
7971;SDS011;4031;49.758;6.120;2024-03-17T06:28:12;12.23;;;8.10;;
7971;SDS011;4031;49.758;6.120;2024-03-17T06:30:40;12.50;;;7.17;;
7971;SDS011;4031;49.758;6.120;2024-03-17T06:33:07;13.97;;;7.37;;
7971;SDS011;4031;49.758;6.120;2024-03-17T06:35:36;13.97;;;8.73;;
7971;SDS011;4031;49.758;6.120;2024-03-17T06:38:02;17.30;;;7.63;;
7971;SDS011;4031;49.758;6.120;2024-03-17T06:40:29;23.20;;;7.80;;
7971;SDS011;4031;49.758;6.120;2024-03-17T06:42:55;14.60;;;6.70;;
7971;SDS011;4031;49.758;6.120;2024-03-17T06:45:21;21.73;;;7.97;;
7971;SDS011;4031;49.758;6.120;2024-03-17T06:47:48;13.57;;;7.80;;
7971;SDS011;4031;49.758;6.120;2024-03-17T06:50:14;13.70;;;8.07;;
7971;SDS011;4031;49.758;6.120;2024-03-17T06:52:39;15.67;;;8.47;;
7971;SDS011;4031;49.758;6.120;2024-03-17T06:55:06;31.10;;;10.60;;
7971;SDS011;4031;49.758;6.120;2024-03-17T06:57:32;30.70;;;9.33;;
7971;SDS011;4031;49.758;6.120;2024-03-17T06:59:59;17.90;;;10.00;;
7971;SDS011;4031;49.758;6.120;2024-03-17T07:02:26;17.80;;;8.63;;
7971;SDS011;4031;49.758;6.120;2024-03-17T07:04:52;15.83;;;8.43;;
7971;SDS011;4031;49.758;6.120;2024-03-17T07:07:17;18.40;;;8.80;;
7971;SDS011;4031;49.758;6.120;2024-03-17T07:09:43;16.67;;;9.33;;
7971;SDS011;4031;49.758;6.120;2024-03-17T07:12:12;23.67;;;8.73;;
7971;SDS011;4031;49.758;6.120;2024-03-17T07:14:37;23.67;;;9.47;;
7971;SDS011;4031;49.758;6.120;2024-03-17T07:17:03;36.57;;;11.13;;
7971;SDS011;4031;49.758;6.120;2024-03-17T07:19:29;17.83;;;10.03;;
7971;SDS011;4031;49.758;6.120;2024-03-17T07:21:56;14.20;;;7.80;;
7971;SDS011;4031;49.758;6.120;2024-03-17T07:24:22;14.73;;;8.50;;
7971;SDS011;4031;49.758;6.120;2024-03-17T07:26:48;13.87;;;8.60;;
7971;SDS011;4031;49.758;6.120;2024-03-17T07:29:15;11.23;;;7.83;;
7971;SDS011;4031;49.758;6.120;2024-03-17T07:31:41;15.20;;;7.27;;
7971;SDS011;4031;49.758;6.120;2024-03-17T07:34:07;17.10;;;7.80;;
7971;SDS011;4031;49.758;6.120;2024-03-17T07:36:34;11.50;;;7.63;;
7971;SDS011;4031;49.758;6.120;2024-03-17T07:39:00;12.33;;;7.97;;
7971;SDS011;4031;49.758;6.120;2024-03-17T07:41:27;14.57;;;10.53;;
7971;SDS011;4031;49.758;6.120;2024-03-17T07:43:52;13.23;;;8.57;;
7971;SDS011;4031;49.758;6.120;2024-03-17T07:46:18;14.23;;;9.10;;
7971;SDS011;4031;49.758;6.120;2024-03-17T07:48:44;11.80;;;8.03;;
7971;SDS011;4031;49.758;6.120;2024-03-17T07:53:41;7.50;;;6.70;;
7971;SDS011;4031;49.758;6.120;2024-03-17T07:56:10;9.90;;;8.47;;
7971;SDS011;4031;49.758;6.120;2024-03-17T07:58:41;14.50;;;8.23;;
7971;SDS011;4031;49.758;6.120;2024-03-17T08:01:09;8.23;;;7.13;;
7971;SDS011;4031;49.758;6.120;2024-03-17T08:03:40;7.97;;;6.90;;
7971;SDS011;4031;49.758;6.120;2024-03-17T08:06:10;12.20;;;7.43;;
7971;SDS011;4031;49.758;6.120;2024-03-17T08:08:36;7.33;;;6.37;;
7971;SDS011;4031;49.758;6.120;2024-03-17T08:11:02;6.80;;;5.83;;
7971;SDS011;4031;49.758;6.120;2024-03-17T08:13:29;7.40;;;6.07;;
7971;SDS011;4031;49.758;6.120;2024-03-17T08:16:03;7.83;;;6.43;;
7971;SDS011;4031;49.758;6.120;2024-03-17T08:18:32;7.90;;;6.40;;
7971;SDS011;4031;49.758;6.120;2024-03-17T08:20:59;7.57;;;6.33;;
7971;SDS011;4031;49.758;6.120;2024-03-17T08:23:28;9.50;;;6.33;;
7971;SDS011;4031;49.758;6.120;2024-03-17T08:25:54;7.57;;;5.33;;
7971;SDS011;4031;49.758;6.120;2024-03-17T08:28:22;5.90;;;5.30;;
7971;SDS011;4031;49.758;6.120;2024-03-17T08:30:55;6.77;;;5.80;;
7971;SDS011;4031;49.758;6.120;2024-03-17T08:33:25;7.60;;;5.40;;
7971;SDS011;4031;49.758;6.120;2024-03-17T08:35:53;6.47;;;5.40;;
7971;SDS011;4031;49.758;6.120;2024-03-17T08:38:19;5.60;;;5.10;;
7971;SDS011;4031;49.758;6.120;2024-03-17T08:40:45;5.63;;;4.47;;
7971;SDS011;4031;49.758;6.120;2024-03-17T08:43:12;8.30;;;5.73;;
7971;SDS011;4031;49.758;6.120;2024-03-17T08:45:38;9.67;;;6.40;;
7971;SDS011;4031;49.758;6.120;2024-03-17T08:48:04;6.57;;;5.97;;
7971;SDS011;4031;49.758;6.120;2024-03-17T08:50:30;7.80;;;5.40;;
7971;SDS011;4031;49.758;6.120;2024-03-17T08:52:58;9.60;;;6.67;;
7971;SDS011;4031;49.758;6.120;2024-03-17T08:55:24;7.90;;;5.60;;
7971;SDS011;4031;49.758;6.120;2024-03-17T08:57:50;6.17;;;5.47;;
7971;SDS011;4031;49.758;6.120;2024-03-17T09:00:16;7.67;;;6.87;;
7971;SDS011;4031;49.758;6.120;2024-03-17T09:02:42;8.37;;;6.73;;
7971;SDS011;4031;49.758;6.120;2024-03-17T09:05:07;8.43;;;6.17;;
7971;SDS011;4031;49.758;6.120;2024-03-17T09:07:33;8.93;;;6.90;;
7971;SDS011;4031;49.758;6.120;2024-03-17T09:09:59;8.30;;;6.13;;
7971;SDS011;4031;49.758;6.120;2024-03-17T09:12:25;8.33;;;6.83;;
7971;SDS011;4031;49.758;6.120;2024-03-17T09:14:52;8.57;;;6.63;;
7971;SDS011;4031;49.758;6.120;2024-03-17T09:17:19;6.73;;;5.60;;
7971;SDS011;4031;49.758;6.120;2024-03-17T09:19:46;8.90;;;6.60;;
7971;SDS011;4031;49.758;6.120;2024-03-17T09:22:12;10.23;;;7.63;;
7971;SDS011;4031;49.758;6.120;2024-03-17T09:24:38;8.80;;;7.80;;
7971;SDS011;4031;49.758;6.120;2024-03-17T09:27:05;12.17;;;7.47;;
7971;SDS011;4031;49.758;6.120;2024-03-17T09:29:31;10.10;;;6.87;;
7971;SDS011;4031;49.758;6.120;2024-03-17T09:31:58;10.20;;;8.17;;
7971;SDS011;4031;49.758;6.120;2024-03-17T09:34:24;7.80;;;6.30;;
7971;SDS011;4031;49.758;6.120;2024-03-17T09:36:50;9.70;;;8.03;;
7971;SDS011;4031;49.758;6.120;2024-03-17T09:39:16;9.30;;;7.20;;
7971;SDS011;4031;49.758;6.120;2024-03-17T09:41:41;11.13;;;8.30;;
7971;SDS011;4031;49.758;6.120;2024-03-17T09:44:10;8.13;;;6.67;;
7971;SDS011;4031;49.758;6.120;2024-03-17T09:46:40;8.63;;;7.27;;
7971;SDS011;4031;49.758;6.120;2024-03-17T09:49:14;8.67;;;6.90;;
7971;SDS011;4031;49.758;6.120;2024-03-17T09:51:43;8.27;;;7.03;;
7971;SDS011;4031;49.758;6.120;2024-03-17T09:54:18;7.90;;;6.43;;
7971;SDS011;4031;49.758;6.120;2024-03-17T09:56:45;7.27;;;6.40;;
7971;SDS011;4031;49.758;6.120;2024-03-17T09:59:11;7.43;;;6.30;;
7971;SDS011;4031;49.758;6.120;2024-03-17T10:01:37;11.00;;;6.50;;
7971;SDS011;4031;49.758;6.120;2024-03-17T10:04:03;11.50;;;7.10;;
7971;SDS011;4031;49.758;6.120;2024-03-17T10:06:29;8.63;;;6.77;;
7971;SDS011;4031;49.758;6.120;2024-03-17T10:08:57;7.83;;;5.97;;
7971;SDS011;4031;49.758;6.120;2024-03-17T10:11:32;7.70;;;6.37;;
7971;SDS011;4031;49.758;6.120;2024-03-17T10:16:34;7.13;;;5.80;;
7971;SDS011;4031;49.758;6.120;2024-03-17T10:19:08;8.30;;;5.90;;
7971;SDS011;4031;49.758;6.120;2024-03-17T10:21:38;7.63;;;5.77;;
7971;SDS011;4031;49.758;6.120;2024-03-17T10:26:44;9.43;;;6.23;;
7971;SDS011;4031;49.758;6.120;2024-03-17T10:29:28;13.57;;;6.67;;
7971;SDS011;4031;49.758;6.120;2024-03-17T10:32:04;7.67;;;6.03;;
7971;SDS011;4031;49.758;6.120;2024-03-17T10:34:38;10.50;;;5.90;;
7971;SDS011;4031;49.758;6.120;2024-03-17T10:39:37;7.23;;;6.20;;
7971;SDS011;4031;49.758;6.120;2024-03-17T10:42:06;10.53;;;6.07;;
7971;SDS011;4031;49.758;6.120;2024-03-17T10:44:39;10.03;;;6.80;;
7971;SDS011;4031;49.758;6.120;2024-03-17T10:47:20;8.03;;;5.90;;
7971;SDS011;4031;49.758;6.120;2024-03-17T10:49:51;7.67;;;6.03;;
7971;SDS011;4031;49.758;6.120;2024-03-17T10:52:20;8.40;;;6.80;;
7971;SDS011;4031;49.758;6.120;2024-03-17T10:54:54;6.47;;;5.60;;
7971;SDS011;4031;49.758;6.120;2024-03-17T11:00:04;8.40;;;5.90;;
7971;SDS011;4031;49.758;6.120;2024-03-17T11:02:37;6.77;;;4.77;;
7971;SDS011;4031;49.758;6.120;2024-03-17T11:05:10;8.37;;;5.47;;
7971;SDS011;4031;49.758;6.120;2024-03-17T11:07:41;7.47;;;5.23;;
7971;SDS011;4031;49.758;6.120;2024-03-17T11:10:14;5.93;;;4.80;;
7971;SDS011;4031;49.758;6.120;2024-03-17T11:12:50;5.70;;;4.07;;
7971;SDS011;4031;49.758;6.120;2024-03-17T11:17:48;6.70;;;4.83;;
7971;SDS011;4031;49.758;6.120;2024-03-17T11:20:26;6.00;;;4.40;;
7971;SDS011;4031;49.758;6.120;2024-03-17T11:22:56;4.37;;;3.97;;
7971;SDS011;4031;49.758;6.120;2024-03-17T11:28:02;7.70;;;4.90;;
7971;SDS011;4031;49.758;6.120;2024-03-17T11:41:53;6.57;;;4.40;;
7971;SDS011;4031;49.758;6.120;2024-03-17T11:46:55;7.33;;;4.57;;
7971;SDS011;4031;49.758;6.120;2024-03-17T11:54:38;6.00;;;5.00;;
7971;SDS011;4031;49.758;6.120;2024-03-17T11:59:39;5.53;;;4.40;;
7971;SDS011;4031;49.758;6.120;2024-03-17T12:04:59;5.47;;;3.80;;
7971;SDS011;4031;49.758;6.120;2024-03-17T12:07:27;6.10;;;4.20;;
7971;SDS011;4031;49.758;6.120;2024-03-17T12:09:55;5.17;;;3.77;;
7971;SDS011;4031;49.758;6.120;2024-03-17T12:12:23;4.80;;;4.40;;
7971;SDS011;4031;49.758;6.120;2024-03-17T12:14:59;7.00;;;4.50;;
7971;SDS011;4031;49.758;6.120;2024-03-17T12:17:27;4.93;;;4.00;;
7971;SDS011;4031;49.758;6.120;2024-03-17T12:19:53;7.40;;;5.10;;
7971;SDS011;4031;49.758;6.120;2024-03-17T12:22:23;6.10;;;5.00;;
7971;SDS011;4031;49.758;6.120;2024-03-17T12:24:52;7.07;;;4.30;;
7971;SDS011;4031;49.758;6.120;2024-03-17T12:27:21;6.27;;;4.93;;
7971;SDS011;4031;49.758;6.120;2024-03-17T12:29:50;5.33;;;4.70;;
7971;SDS011;4031;49.758;6.120;2024-03-17T12:32:24;5.80;;;4.40;;
7971;SDS011;4031;49.758;6.120;2024-03-17T12:37:24;3.87;;;3.43;;
7971;SDS011;4031;49.758;6.120;2024-03-17T12:39:57;5.83;;;3.50;;
7971;SDS011;4031;49.758;6.120;2024-03-17T12:42:25;5.40;;;3.43;;
7971;SDS011;4031;49.758;6.120;2024-03-17T12:45:01;4.40;;;3.97;;
7971;SDS011;4031;49.758;6.120;2024-03-17T12:47:34;3.40;;;3.00;;
7971;SDS011;4031;49.758;6.120;2024-03-17T12:50:01;4.60;;;3.20;;
7971;SDS011;4031;49.758;6.120;2024-03-17T12:52:31;3.20;;;2.57;;
7971;SDS011;4031;49.758;6.120;2024-03-17T12:57:48;3.93;;;2.73;;
7971;SDS011;4031;49.758;6.120;2024-03-17T13:00:34;3.20;;;2.83;;
7971;SDS011;4031;49.758;6.120;2024-03-17T13:03:06;3.83;;;2.87;;
7971;SDS011;4031;49.758;6.120;2024-03-17T13:05:36;3.23;;;2.30;;
7971;SDS011;4031;49.758;6.120;2024-03-17T13:08:02;4.60;;;2.23;;
7971;SDS011;4031;49.758;6.120;2024-03-17T13:10:29;2.70;;;2.40;;
7971;SDS011;4031;49.758;6.120;2024-03-17T13:13:07;2.70;;;2.20;;
7971;SDS011;4031;49.758;6.120;2024-03-17T13:15:34;4.20;;;2.37;;
7971;SDS011;4031;49.758;6.120;2024-03-17T13:18:04;3.30;;;2.23;;
7971;SDS011;4031;49.758;6.120;2024-03-17T13:20:34;2.47;;;2.10;;
7971;SDS011;4031;49.758;6.120;2024-03-17T13:23:00;3.30;;;1.87;;
7971;SDS011;4031;49.758;6.120;2024-03-17T13:25:27;4.10;;;2.90;;
7971;SDS011;4031;49.758;6.120;2024-03-17T13:28:02;2.80;;;2.10;;
7971;SDS011;4031;49.758;6.120;2024-03-17T13:30:29;6.47;;;2.47;;
7971;SDS011;4031;49.758;6.120;2024-03-17T13:32:56;3.27;;;2.63;;
7971;SDS011;4031;49.758;6.120;2024-03-17T13:35:26;3.17;;;1.93;;
7971;SDS011;4031;49.758;6.120;2024-03-17T13:37:54;2.23;;;2.03;;
7971;SDS011;4031;49.758;6.120;2024-03-17T13:40:21;1.70;;;1.43;;
7971;SDS011;4031;49.758;6.120;2024-03-17T13:42:48;2.63;;;2.10;;
7971;SDS011;4031;49.758;6.120;2024-03-17T13:45:16;4.70;;;2.40;;
7971;SDS011;4031;49.758;6.120;2024-03-17T13:47:49;4.47;;;2.63;;
7971;SDS011;4031;49.758;6.120;2024-03-17T13:50:23;3.00;;;2.57;;
7971;SDS011;4031;49.758;6.120;2024-03-17T13:52:49;6.40;;;2.93;;
7971;SDS011;4031;49.758;6.120;2024-03-17T13:55:19;3.00;;;2.27;;
7971;SDS011;4031;49.758;6.120;2024-03-17T13:57:51;3.67;;;2.63;;
7971;SDS011;4031;49.758;6.120;2024-03-17T14:00:22;2.87;;;2.60;;
7971;SDS011;4031;49.758;6.120;2024-03-17T14:02:49;3.00;;;2.60;;
7971;SDS011;4031;49.758;6.120;2024-03-17T14:05:19;3.50;;;2.60;;
7971;SDS011;4031;49.758;6.120;2024-03-17T14:07:46;4.90;;;3.33;;
7971;SDS011;4031;49.758;6.120;2024-03-17T14:10:14;4.80;;;2.80;;
7971;SDS011;4031;49.758;6.120;2024-03-17T14:12:44;3.20;;;2.50;;
7971;SDS011;4031;49.758;6.120;2024-03-17T14:15:11;3.53;;;2.80;;
7971;SDS011;4031;49.758;6.120;2024-03-17T14:17:39;3.77;;;2.77;;
7971;SDS011;4031;49.758;6.120;2024-03-17T14:20:07;3.13;;;2.60;;
7971;SDS011;4031;49.758;6.120;2024-03-17T14:22:34;2.97;;;2.70;;
7971;SDS011;4031;49.758;6.120;2024-03-17T14:25:05;2.93;;;2.67;;
7971;SDS011;4031;49.758;6.120;2024-03-17T14:27:31;4.37;;;3.07;;
7971;SDS011;4031;49.758;6.120;2024-03-17T14:29:58;3.97;;;3.47;;
7971;SDS011;4031;49.758;6.120;2024-03-17T14:32:24;3.33;;;2.50;;
7971;SDS011;4031;49.758;6.120;2024-03-17T14:34:50;3.10;;;2.80;;
7971;SDS011;4031;49.758;6.120;2024-03-17T14:37:15;3.67;;;3.13;;
7971;SDS011;4031;49.758;6.120;2024-03-17T14:39:41;3.57;;;3.23;;
7971;SDS011;4031;49.758;6.120;2024-03-17T14:42:07;4.87;;;3.23;;
7971;SDS011;4031;49.758;6.120;2024-03-17T14:44:36;4.50;;;3.67;;
7971;SDS011;4031;49.758;6.120;2024-03-17T14:47:02;3.80;;;3.50;;
7971;SDS011;4031;49.758;6.120;2024-03-17T14:49:32;5.07;;;3.40;;
7971;SDS011;4031;49.758;6.120;2024-03-17T14:51:58;3.47;;;3.10;;
7971;SDS011;4031;49.758;6.120;2024-03-17T14:54:24;3.17;;;2.73;;
7971;SDS011;4031;49.758;6.120;2024-03-17T14:56:51;3.60;;;2.90;;
7971;SDS011;4031;49.758;6.120;2024-03-17T14:59:18;3.57;;;3.27;;
7971;SDS011;4031;49.758;6.120;2024-03-17T15:01:45;5.60;;;3.23;;
7971;SDS011;4031;49.758;6.120;2024-03-17T15:04:12;5.10;;;3.30;;
7971;SDS011;4031;49.758;6.120;2024-03-17T15:06:40;4.40;;;3.33;;
7971;SDS011;4031;49.758;6.120;2024-03-17T15:09:06;5.20;;;3.20;;
7971;SDS011;4031;49.758;6.120;2024-03-17T15:11:33;5.00;;;3.53;;
7971;SDS011;4031;49.758;6.120;2024-03-17T15:13:59;5.60;;;3.53;;
7971;SDS011;4031;49.758;6.120;2024-03-17T15:16:24;3.70;;;3.00;;
7971;SDS011;4031;49.758;6.120;2024-03-17T15:18:50;3.50;;;3.20;;
7971;SDS011;4031;49.758;6.120;2024-03-17T15:21:16;3.20;;;2.90;;
7971;SDS011;4031;49.758;6.120;2024-03-17T15:23:42;2.87;;;2.67;;
7971;SDS011;4031;49.758;6.120;2024-03-17T15:26:07;3.73;;;3.07;;
7971;SDS011;4031;49.758;6.120;2024-03-17T15:28:38;3.07;;;2.77;;
7971;SDS011;4031;49.758;6.120;2024-03-17T15:31:05;7.33;;;3.33;;
7971;SDS011;4031;49.758;6.120;2024-03-17T15:33:32;3.33;;;2.70;;
7971;SDS011;4031;49.758;6.120;2024-03-17T15:36:05;3.40;;;2.80;;
7971;SDS011;4031;49.758;6.120;2024-03-17T15:38:36;5.17;;;2.60;;
7971;SDS011;4031;49.758;6.120;2024-03-17T15:41:03;2.50;;;2.23;;
7971;SDS011;4031;49.758;6.120;2024-03-17T15:43:35;2.33;;;2.13;;
7971;SDS011;4031;49.758;6.120;2024-03-17T15:46:07;7.00;;;3.03;;
7971;SDS011;4031;49.758;6.120;2024-03-17T15:48:39;3.20;;;2.53;;
7971;SDS011;4031;49.758;6.120;2024-03-17T15:51:06;4.00;;;2.53;;
7971;SDS011;4031;49.758;6.120;2024-03-17T15:53:32;3.23;;;2.90;;
7971;SDS011;4031;49.758;6.120;2024-03-17T15:55:59;3.07;;;2.10;;
7971;SDS011;4031;49.758;6.120;2024-03-17T15:58:30;3.17;;;2.70;;
7971;SDS011;4031;49.758;6.120;2024-03-17T16:00:56;2.60;;;2.40;;
7971;SDS011;4031;49.758;6.120;2024-03-17T16:03:24;1.90;;;1.77;;